createdAt,value
2023-08-22T00:06:55.868Z,79.6
2023-08-22T00:16:55.857Z,79.8
2023-08-22T00:26:55.944Z,79.8
2023-08-22T00:36:55.769Z,81
2023-08-22T00:46:55.717Z,81.2
2023-08-22T00:56:55.932Z,82
2023-08-22T01:06:55.646Z,82.2
2023-08-22T01:16:55.615Z,82.2
2023-08-22T01:26:55.759Z,81.4
2023-08-22T01:36:55.532Z,81.4
2023-08-22T01:46:55.479Z,81.8
2023-08-22T01:56:55.594Z,82
2023-08-22T02:06:55.430Z,81.8
2023-08-22T02:16:55.357Z,81.8
2023-08-22T02:26:55.341Z,83.2
2023-08-22T02:36:55.299Z,83.4
2023-08-22T02:46:55.262Z,84.2
2023-08-22T02:56:55.209Z,84.2
2023-08-22T03:06:55.251Z,83.6
2023-08-22T03:16:55.128Z,83.6
2023-08-22T03:26:55.240Z,84.2
2023-08-22T03:36:55.078Z,84.6
2023-08-22T03:46:55.029Z,84.4
2023-08-22T03:56:55.001Z,84
2023-08-22T04:06:54.967Z,84.4
2023-08-22T04:16:54.903Z,85.2
2023-08-22T04:26:54.879Z,85
2023-08-22T04:36:54.829Z,84.8
2023-08-22T04:46:54.796Z,85.4
2023-08-22T04:56:54.755Z,85
2023-08-22T05:06:54.723Z,85.4
2023-08-22T05:16:54.678Z,85.6
2023-08-22T05:26:54.652Z,86
2023-08-22T05:36:54.616Z,86
2023-08-22T05:46:54.585Z,86.4
2023-08-22T05:56:54.542Z,86.6
2023-08-22T06:06:54.501Z,86
2023-08-22T06:16:54.571Z,86
2023-08-22T06:26:54.647Z,86
2023-08-22T06:36:54.385Z,86
2023-08-22T06:46:54.457Z,86
2023-08-22T06:56:54.376Z,85.6
2023-08-22T07:06:54.293Z,85.4
2023-08-22T07:16:54.222Z,85
2023-08-22T07:26:54.181Z,84.6
2023-08-22T07:36:54.175Z,84.4
2023-08-22T07:46:54.108Z,83.6
2023-08-22T07:56:54.094Z,82
2023-08-22T08:06:54.018Z,81.6
2023-08-22T08:16:53.987Z,81
2023-08-22T08:26:54.005Z,80.6
2023-08-22T08:36:53.914Z,80.2
2023-08-22T08:46:53.867Z,79.8
2023-08-22T08:56:53.829Z,80.4
2023-08-22T09:06:53.799Z,79.2
2023-08-22T09:16:53.792Z,77.2
2023-08-22T09:26:53.721Z,74.6
2023-08-22T09:36:53.844Z,72.4
2023-08-22T09:46:53.734Z,72
2023-08-22T09:56:53.641Z,70.6
2023-08-22T10:06:53.599Z,69.2
2023-08-22T10:16:53.523Z,68.6
2023-08-22T10:26:53.488Z,66.6
2023-08-22T10:36:53.819Z,65.2
2023-08-22T10:46:53.511Z,64.4
2023-08-22T10:56:53.474Z,63.8
2023-08-22T11:06:53.604Z,63
2023-08-22T11:16:53.556Z,62.6
2023-08-22T11:26:53.505Z,62
2023-08-22T11:36:53.213Z,61.8
2023-08-22T11:46:53.277Z,61.4
2023-08-22T11:56:53.133Z,61.2
2023-08-22T12:06:53.091Z,61.2
2023-08-22T12:16:53.091Z,60.6
2023-08-22T12:26:53.017Z,59.6
2023-08-22T12:36:53.119Z,58.8
2023-08-22T12:46:52.995Z,58.2
2023-08-22T12:56:53.216Z,57.8
2023-08-22T13:06:52.978Z,56
2023-08-22T13:16:52.879Z,55.8
2023-08-22T13:26:52.780Z,54
2023-08-22T13:36:52.747Z,53.6
2023-08-22T13:46:52.846Z,51.8
2023-08-22T13:56:52.652Z,51.8
2023-08-22T14:06:52.686Z,49.4
2023-08-22T14:16:52.711Z,49.8
2023-08-22T14:26:52.571Z,49.4
2023-08-22T14:36:52.497Z,47.4
2023-08-22T14:46:52.701Z,49
2023-08-22T14:56:52.456Z,50.2
2023-08-22T15:06:52.412Z,49.8
2023-08-22T15:16:52.483Z,49
2023-08-22T15:26:52.330Z,50.4
2023-08-22T15:36:52.462Z,51.4
2023-08-22T15:46:52.271Z,50.6
2023-08-22T15:56:52.424Z,51.6
2023-08-22T16:06:52.490Z,51.8
2023-08-22T16:16:52.377Z,52
2023-08-22T16:26:52.207Z,52
2023-08-22T16:36:52.295Z,52.8
2023-08-22T16:46:52.000Z,53
2023-08-22T16:56:52.209Z,52.8
2023-08-22T17:06:52.158Z,53.4
2023-08-22T17:16:52.180Z,53
2023-08-22T17:26:51.912Z,52.8
2023-08-22T17:36:51.862Z,52.6
2023-08-22T17:46:51.781Z,52.4
2023-08-22T17:56:51.720Z,51.6
2023-08-22T18:06:51.786Z,53.6
2023-08-22T18:16:51.792Z,53.8
2023-08-22T18:26:51.746Z,57
2023-08-22T18:36:51.845Z,59.6
2023-08-22T18:46:51.559Z,61.4
2023-08-22T18:56:51.707Z,61.8
2023-08-22T19:06:51.571Z,61.4
2023-08-22T19:16:51.680Z,61.4
2023-08-22T19:26:51.418Z,62.8
2023-08-22T19:36:51.449Z,64
2023-08-22T19:46:51.398Z,64.6
2023-08-22T19:56:51.445Z,66.6
2023-08-22T20:06:51.220Z,68
2023-08-22T20:16:51.218Z,68.2
2023-08-22T20:26:51.208Z,68.6
2023-08-22T20:36:51.185Z,70
2023-08-22T20:46:51.052Z,71.2
2023-08-22T20:56:51.038Z,72.6
2023-08-22T21:06:51.017Z,73.6
2023-08-22T21:16:51.065Z,74.8
2023-08-22T21:26:51.210Z,75.4
2023-08-22T21:36:50.855Z,75.6
2023-08-22T21:46:50.917Z,76.2
2023-08-22T21:56:50.801Z,76.6
2023-08-22T22:06:50.847Z,77.4
2023-08-22T22:16:50.803Z,77.8
2023-08-22T22:26:50.671Z,79.8
2023-08-22T22:36:50.736Z,80
2023-08-22T22:46:50.638Z,79.8
2023-08-22T22:56:50.680Z,79.6
2023-08-22T23:06:50.519Z,79.4
2023-08-22T23:16:50.560Z,79.6
2023-08-22T23:26:50.428Z,79.8
2023-08-22T23:36:50.397Z,79.6
2023-08-22T23:46:50.385Z,79.2
2023-08-22T23:56:50.323Z,80.2
